Wallis, Texas
Current Conditions -  °F | °C
As of 9:35 PM on Saturday 22 Nov 2014 (Local Time) from KELA Reporting Station
Thunderstorm Thunderstorm  
Wind Chill: 19°   Ceiling: 600
Heat Index: 19°   Visibility: 10mi
Dew Point: 19°   Wind: 8mph
Humidity: 96%   Direction: 190°S
Pressure: 29.74"   Gusts: NA
Location:  29.63°N, 96.07°W
Report Text: KELA 230335Z AUTO 19007KT 10SM -VCTSRA BKN006 OVC011 19/19 A2974 RMK AO2 LTG DSNT ALQS P0011 T01930187
Loading
Personal Weather Stations






























Interactive Weather Map New forecast layout! Learn more

10-Day Weather Forecast

Advertisements
Track Severe Weather on mobile